Time;durP1;ratioP1;P1;durP2;ratioP2;P2;SDS_P1;SDS_P2;PMS_P1;PMS_P2;Temp;Humidity;BMP_temperature;BMP_pressure;BME280_temperature;BME280_humidity;BME280_pressure;Samples;Min_cycle;Max_cycle;Signal;HPM_P1;HPM_P2
2021/10/21 00:01:14;;;;;;;;;3.50;1.00;;;;;13.71;62.49;98473.81;5016747;28;45489;-78
2021/10/21 00:03:40;;;;;;;;;4.25;0.75;;;;;13.73;62.76;98483.34;5016474;28;45129;-78
2021/10/21 00:06:05;;;;;;;;;5.50;0.00;;;;;13.70;62.49;98470.31;5017160;28;45212;-79
2021/10/21 00:08:30;;;;;;;;;0.50;0.50;;;;;13.74;61.78;98469.00;5016872;28;46290;-79
2021/10/21 00:10:56;;;;;;;;;1.50;1.00;;;;;13.75;61.93;98484.06;5016662;28;45228;-79
2021/10/21 00:13:22;;;;;;;;;0.00;0.00;;;;;13.77;62.46;98467.88;5016504;28;45211;-79
2021/10/21 00:15:47;;;;;;;;;3.00;0.50;;;;;13.78;62.07;98466.84;4999066;28;45291;-79
2021/10/21 00:18:13;;;;;;;;;1.25;1.00;;;;;13.79;61.62;98495.25;5016512;28;46546;-79
2021/10/21 00:20:39;;;;;;;;;1.25;0.50;;;;;13.80;61.77;98492.41;5015887;28;45230;-79
2021/10/21 00:23:04;;;;;;;;;5.00;0.00;;;;;13.82;61.44;98513.63;5015172;28;45160;-79
2021/10/21 00:25:30;;;;;;;;;3.50;0.00;;;;;13.81;62.04;98502.13;5016806;28;45214;-79
2021/10/21 00:27:55;;;;;;;;;3.00;1.00;;;;;13.79;62.47;98517.44;5016030;28;46062;-79
2021/10/21 00:30:21;;;;;;;;;1.00;0.00;;;;;13.78;61.42;98499.75;5016279;28;45239;-79
2021/10/21 00:32:46;;;;;;;;;2.00;0.25;;;;;13.74;61.36;98493.06;5016292;28;45216;-79
2021/10/21 00:35:12;;;;;;;;;2.00;0.25;;;;;13.77;60.94;98561.34;5016649;28;45214;-79
2021/10/21 00:37:38;;;;;;;;;0.50;0.00;;;;;13.77;60.71;98494.59;5016757;28;47289;-79
2021/10/21 00:40:05;;;;;;;;;1.00;0.00;;;;;13.75;60.72;98508.09;5015707;28;45248;-79
2021/10/21 00:42:30;;;;;;;;;2.75;0.50;;;;;13.76;61.55;98520.44;5015034;28;45289;-79
2021/10/21 00:44:56;;;;;;;;;0.00;0.00;;;;;13.77;62.07;98513.28;5016750;28;45184;-79
2021/10/21 00:47:21;;;;;;;;;1.00;0.00;;;;;13.74;62.25;98509.06;5015764;28;45352;-78
2021/10/21 00:49:47;;;;;;;;;3.75;0.00;;;;;13.73;62.13;98533.28;5015702;28;45228;-79
2021/10/21 00:52:13;;;;;;;;;0.25;0.00;;;;;13.69;61.78;98529.22;5015983;28;45284;-78
2021/10/21 00:54:39;;;;;;;;;0.75;0.00;;;;;13.65;62.01;98534.03;5016128;28;45305;-78
2021/10/21 00:57:07;;;;;;;;;0.75;0.00;;;;;13.64;62.40;98548.38;5016083;28;46363;-79
2021/10/21 00:59:33;;;;;;;;;2.00;1.00;;;;;13.61;63.40;98560.22;5016143;28;45484;-78
2021/10/21 01:01:59;;;;;;;;;0.25;0.00;;;;;13.51;63.62;98563.94;4996708;28;45295;-79
2021/10/21 01:04:24;;;;;;;;;1.00;0.00;;;;;13.41;64.15;98567.53;5015930;28;45228;-79
2021/10/21 01:06:50;;;;;;;;;0.00;0.00;;;;;13.31;63.89;98577.41;5015802;28;46143;-78
2021/10/21 01:09:17;;;;;;;;;0.00;0.00;;;;;13.23;63.92;98580.00;5015992;28;45233;-78
2021/10/21 01:11:43;;;;;;;;;0.75;0.00;;;;;13.16;63.57;98598.41;5017638;28;45279;-79
2021/10/21 01:14:09;;;;;;;;;1.00;0.00;;;;;13.17;63.55;98602.78;5019820;28;45278;-79
2021/10/21 01:16:39;;;;;;;;;1.00;0.00;;;;;13.16;63.40;98587.75;5019766;28;45340;-79
2021/10/21 01:19:21;;;;;;;;;0.00;0.00;;;;;13.15;63.69;98606.56;5019130;28;45132;-79
2021/10/21 01:21:48;;;;;;;;;0.75;0.00;;;;;13.15;63.39;98609.25;5019430;28;45188;-79
2021/10/21 01:24:15;;;;;;;;;1.00;0.00;;;;;13.17;63.28;98634.81;5019834;28;45195;-79
2021/10/21 01:26:47;;;;;;;;;1.25;0.00;;;;;13.18;62.52;98675.66;5019252;28;46175;-78
2021/10/21 01:29:13;;;;;;;;;0.50;0.00;;;;;13.14;62.76;98651.09;5001524;28;45603;-79
2021/10/21 01:31:39;;;;;;;;;0.00;0.00;;;;;13.11;62.29;98657.56;5019169;28;45356;-79
2021/10/21 01:34:09;;;;;;;;;0.00;0.00;;;;;13.04;62.68;98651.16;5019369;28;45181;-79
2021/10/21 01:36:35;;;;;;;;;0.00;0.00;;;;;13.05;62.34;98633.31;5019261;28;45227;-79
2021/10/21 01:39:05;;;;;;;;;0.75;0.00;;;;;13.04;62.62;98668.97;5019343;28;45603;-79
2021/10/21 01:41:30;;;;;;;;;1.00;0.00;;;;;13.02;62.29;98681.63;5019031;28;45140;-79
2021/10/21 01:43:56;;;;;;;;;1.00;0.00;;;;;12.99;63.05;98696.09;5019298;28;45257;-79
2021/10/21 01:46:21;;;;;;;;;0.25;0.00;;;;;12.94;62.94;98739.22;5019395;28;45326;-80
2021/10/21 01:48:47;;;;;;;;;0.50;0.00;;;;;12.88;63.22;98733.59;5018842;28;45152;-78
2021/10/21 01:51:14;;;;;;;;;0.00;0.00;;;;;12.79;63.51;98743.31;5018895;28;45256;-79
2021/10/21 01:53:40;;;;;;;;;0.00;0.00;;;;;12.73;63.50;98751.91;5018946;28;45365;-79
2021/10/21 01:56:06;;;;;;;;;0.75;0.00;;;;;12.76;62.98;98760.44;5018636;28;46052;-79
2021/10/21 01:58:31;;;;;;;;;1.00;0.00;;;;;12.72;62.52;98721.72;5018500;28;45149;-79
2021/10/21 02:00:57;;;;;;;;;0.00;0.00;;;;;12.75;62.06;98748.13;5019099;28;45156;-79
2021/10/21 02:03:22;;;;;;;;;0.00;0.00;;;;;12.74;62.33;98753.56;5018410;28;45371;-79
2021/10/21 02:05:47;;;;;;;;;0.50;0.50;;;;;12.78;61.93;98773.63;5018518;28;46484;-78
2021/10/21 02:08:13;;;;;;;;;0.25;0.00;;;;;12.77;62.02;98770.13;5018817;28;45129;-79
2021/10/21 02:10:38;;;;;;;;;0.00;0.00;;;;;12.76;61.56;98795.09;5018715;28;45136;-79
2021/10/21 02:13:03;;;;;;;;;0.00;0.00;;;;;12.77;61.58;98819.97;5018524;28;45213;-79
2021/10/21 02:15:29;;;;;;;;;0.00;0.00;;;;;12.75;61.30;98819.25;5018492;28;45414;-79
2021/10/21 02:17:54;;;;;;;;;0.00;0.00;;;;;12.70;61.15;98819.69;5018399;28;45116;-79
2021/10/21 02:20:20;;;;;;;;;0.00;0.00;;;;;12.67;60.50;98845.78;5018896;28;45185;-79
2021/10/21 02:22:47;;;;;;;;;0.00;0.00;;;;;12.64;61.62;98820.25;5018306;28;45203;-79
2021/10/21 02:25:12;;;;;;;;;0.50;0.00;;;;;12.64;60.87;98859.38;5018043;28;47138;-79
2021/10/21 02:27:38;;;;;;;;;0.25;0.00;;;;;12.62;61.57;98891.53;5018462;28;45327;-79
2021/10/21 02:30:09;;;;;;;;;0.00;0.00;;;;;12.58;61.29;98863.47;5018402;28;45252;-79
2021/10/21 02:32:34;;;;;;;;;0.00;0.00;;;;;12.58;61.38;98890.97;5017877;28;45249;-79
2021/10/21 02:34:59;;;;;;;;;1.00;0.00;;;;;12.59;61.39;98894.47;5018531;28;45921;-79
2021/10/21 02:37:25;;;;;;;;;0.00;0.00;;;;;12.58;61.50;98850.13;5017430;28;45395;-79
2021/10/21 02:39:50;;;;;;;;;1.00;0.00;;;;;12.57;61.57;98918.63;5018534;28;45291;-79
2021/10/21 02:42:16;;;;;;;;;0.00;0.00;;;;;12.57;61.24;98896.44;5016268;28;45245;-79
2021/10/21 02:44:41;;;;;;;;;0.00;0.00;;;;;12.55;61.87;98885.06;5018255;28;46178;-79
2021/10/21 02:47:07;;;;;;;;;1.00;0.00;;;;;12.55;61.83;98951.72;5018161;28;45206;-79
2021/10/21 02:49:32;;;;;;;;;1.00;0.00;;;;;12.53;62.01;98949.19;5018172;28;45299;-79
2021/10/21 02:51:57;;;;;;;;;1.00;0.00;;;;;12.55;62.45;98981.88;5000286;28;45363;-79
2021/10/21 02:54:23;;;;;;;;;0.00;0.00;;;;;12.50;62.84;98973.47;5017690;28;46840;-79
2021/10/21 02:56:48;;;;;;;;;0.50;0.00;;;;;12.47;63.12;98999.53;5017488;28;45293;-79
2021/10/21 02:59:14;;;;;;;;;2.00;0.00;;;;;12.42;62.51;99021.28;5018031;28;45200;-79
2021/10/21 03:01:39;;;;;;;;;1.25;0.00;;;;;12.37;62.09;99043.00;5018027;28;45232;-79
2021/10/21 03:04:05;;;;;;;;;0.00;0.00;;;;;12.38;61.78;99050.00;5017107;28;47258;-79
2021/10/21 03:06:31;;;;;;;;;1.25;0.00;;;;;12.36;61.69;99077.78;5017637;28;45247;-79
2021/10/21 03:08:57;;;;;;;;;3.00;0.00;;;;;12.30;61.88;99088.94;5017599;28;45247;-79
2021/10/21 03:11:22;;;;;;;;;0.00;0.00;;;;;12.33;61.60;99124.19;5017490;28;45223;-79
2021/10/21 03:13:47;;;;;;;;;0.00;0.00;;;;;12.26;61.56;99126.53;5017092;28;46123;-79
2021/10/21 03:16:13;;;;;;;;;0.00;0.00;;;;;12.30;61.60;99153.78;5017430;28;45304;-79
2021/10/21 03:18:38;;;;;;;;;0.75;0.00;;;;;12.26;61.39;99181.66;5017335;28;45156;-79
2021/10/21 03:21:03;;;;;;;;;0.00;0.00;;;;;12.22;61.91;99212.19;5017107;28;45379;-79
2021/10/21 03:23:29;;;;;;;;;0.00;0.00;;;;;12.21;62.08;99304.63;5016896;28;45213;-79
2021/10/21 03:25:54;;;;;;;;;1.00;0.00;;;;;12.16;62.24;99242.88;5017108;28;45275;-79
2021/10/21 03:28:20;;;;;;;;;0.75;0.00;;;;;12.13;62.58;99277.75;5017444;28;45187;-79
2021/10/21 03:30:46;;;;;;;;;1.50;0.00;;;;;12.09;63.01;99281.66;5017282;28;45229;-79
2021/10/21 03:33:14;;;;;;;;;0.00;0.00;;;;;12.00;62.71;99314.34;5015959;28;45249;-79
2021/10/21 03:35:40;;;;;;;;;1.00;0.00;;;;;11.94;63.37;99305.03;5017068;28;45184;-79
2021/10/21 03:38:06;;;;;;;;;1.00;0.00;;;;;11.87;63.52;99354.41;5017288;28;45295;-79
2021/10/21 03:40:31;;;;;;;;;0.00;0.00;;;;;11.78;63.43;99365.81;5016735;28;45248;-79
2021/10/21 03:42:57;;;;;;;;;1.00;0.00;;;;;11.67;64.12;99366.66;5017065;28;45362;-79
2021/10/21 03:45:22;;;;;;;;;0.50;0.00;;;;;11.64;63.75;99373.06;5016804;28;45269;-79
2021/10/21 03:47:48;;;;;;;;;0.00;0.00;;;;;11.55;63.99;99403.91;5017217;28;45193;-79
2021/10/21 03:50:13;;;;;;;;;0.00;0.00;;;;;11.49;64.12;99431.03;5017204;28;45257;-79
2021/10/21 03:52:39;;;;;;;;;1.00;0.00;;;;;11.43;64.53;99436.84;5016431;28;45285;-79
2021/10/21 03:55:05;;;;;;;;;0.75;0.00;;;;;11.39;64.45;99475.28;5017099;28;45140;-79
2021/10/21 03:57:31;;;;;;;;;0.00;0.00;;;;;11.37;65.24;99471.88;5016859;28;45236;-80
2021/10/21 03:59:56;;;;;;;;;0.00;0.00;;;;;11.36;65.22;99496.81;5017052;28;45221;-79
2021/10/21 04:02:22;;;;;;;;;0.00;0.00;;;;;11.34;65.64;99488.09;5016139;28;45385;-79
2021/10/21 04:04:47;;;;;;;;;1.00;0.00;;;;;11.30;65.51;99499.91;5016810;28;45200;-79
2021/10/21 04:07:12;;;;;;;;;1.00;0.00;;;;;11.26;65.25;99498.44;5016792;28;45197;-79
2021/10/21 04:09:38;;;;;;;;;0.00;0.00;;;;;11.18;65.21;99504.34;5016732;28;45267;-79
2021/10/21 04:12:04;;;;;;;;;2.00;0.00;;;;;11.20;65.01;99516.59;5016488;28;46000;-79
2021/10/21 04:14:29;;;;;;;;;1.00;0.00;;;;;11.22;64.96;99509.31;5016342;28;45263;-79
2021/10/21 04:16:54;;;;;;;;;1.00;0.00;;;;;11.26;64.98;99527.72;5016511;28;45233;-79
2021/10/21 04:19:19;;;;;;;;;0.00;0.00;;;;;11.25;65.05;99516.25;5016558;28;45237;-79
2021/10/21 04:21:45;;;;;;;;;0.50;0.00;;;;;11.29;65.07;99519.53;5016279;28;45510;-79
2021/10/21 04:24:10;;;;;;;;;0.75;0.00;;;;;11.30;65.39;99529.19;5016179;28;45227;-79
2021/10/21 04:26:35;;;;;;;;;0.00;0.00;;;;;11.33;65.30;99547.59;5016582;28;45184;-79
2021/10/21 04:29:01;;;;;;;;;0.50;0.50;;;;;11.33;65.25;99543.13;5016424;28;45257;-79
2021/10/21 04:31:26;;;;;;;;;2.50;1.00;;;;;11.33;65.07;99552.91;5016418;28;46264;-79
2021/10/21 04:33:51;;;;;;;;;1.50;1.00;;;;;11.29;65.07;99554.13;5015966;28;45229;-79
2021/10/21 04:36:17;;;;;;;;;1.00;0.00;;;;;11.32;65.35;99559.22;5016501;28;45240;-78
2021/10/21 04:38:42;;;;;;;;;1.25;0.25;;;;;11.32;65.31;99562.72;5015433;28;45213;-78
2021/10/21 04:41:07;;;;;;;;;2.75;0.00;;;;;11.31;65.31;99571.66;5003606;28;46162;-78
2021/10/21 04:43:32;;;;;;;;;1.00;0.00;;;;;11.37;65.29;99581.00;5015797;28;45308;-79
2021/10/21 04:45:58;;;;;;;;;1.25;0.50;;;;;11.36;65.35;99589.97;5015582;28;45211;-78
2021/10/21 04:48:23;;;;;;;;;2.75;0.00;;;;;11.32;65.29;99580.50;5016007;28;45287;-79
2021/10/21 04:50:48;;;;;;;;;4.00;0.00;;;;;11.24;65.21;99586.38;5015696;28;45258;-81
2021/10/21 04:53:15;;;;;;;;;1.25;0.00;;;;;11.26;65.08;99599.56;5015798;28;45213;-79
2021/10/21 04:55:40;;;;;;;;;1.00;0.00;;;;;11.19;65.24;99600.03;5016339;28;45275;-80
2021/10/21 04:58:06;;;;;;;;;0.25;0.00;;;;;11.14;64.85;99610.13;5016357;28;45155;-79
2021/10/21 05:00:33;;;;;;;;;2.75;0.00;;;;;11.13;64.33;99624.44;5016077;28;45984;-79
2021/10/21 05:03:12;;;;;;;;;0.00;0.00;;;;;11.13;64.56;99635.06;5006109;28;45182;-79
2021/10/21 05:05:40;;;;;;;;;1.00;0.00;;;;;11.14;64.25;99630.59;4996297;28;45240;-81
2021/10/21 05:08:06;;;;;;;;;1.50;0.00;;;;;11.15;64.08;99646.44;4996507;28;45225;-82
2021/10/21 05:10:31;;;;;;;;;2.00;1.00;;;;;11.15;64.18;99642.94;4995783;28;45922;-79
2021/10/21 05:12:56;;;;;;;;;1.00;0.00;;;;;11.08;63.88;99636.34;4993487;28;45291;-83
2021/10/21 05:15:23;;;;;;;;;0.00;0.00;;;;;11.16;63.97;99661.44;4995125;28;45231;-79
2021/10/21 05:17:49;;;;;;;;;0.00;0.00;;;;;11.14;64.30;99663.34;4996153;28;45259;-79
2021/10/21 05:20:15;;;;;;;;;3.00;0.00;;;;;11.15;64.07;99662.41;4996062;28;46089;-79
2021/10/21 05:22:40;;;;;;;;;0.00;0.00;;;;;11.15;63.84;99670.38;4995673;28;45332;-79
2021/10/21 05:25:06;;;;;;;;;4.00;0.00;;;;;11.17;64.39;99678.25;4996176;28;45282;-79
2021/10/21 05:27:32;;;;;;;;;2.75;1.50;;;;;11.18;64.57;99686.13;4996245;28;45165;-79
2021/10/21 05:29:58;;;;;;;;;2.00;1.00;;;;;11.19;64.25;99690.50;4994669;28;47037;-79
2021/10/21 05:32:23;;;;;;;;;3.25;1.00;;;;;11.14;64.33;99689.94;4995525;28;45269;-79
2021/10/21 05:34:48;;;;;;;;;1.00;1.00;;;;;11.18;64.25;99694.09;4995836;28;45229;-79
2021/10/21 05:37:14;;;;;;;;;1.75;0.75;;;;;11.13;64.52;99690.94;4994732;28;45234;-79
2021/10/21 05:39:40;;;;;;;;;1.50;0.00;;;;;11.14;64.45;99705.91;4995695;28;45318;-79
2021/10/21 05:42:06;;;;;;;;;0.00;0.00;;;;;11.13;64.50;99706.03;4995771;28;45372;-79
2021/10/21 05:44:31;;;;;;;;;1.00;0.00;;;;;11.10;64.76;99707.13;4995828;28;45214;-79
2021/10/21 05:46:57;;;;;;;;;5.00;1.00;;;;;11.09;65.06;99712.53;4995942;28;45242;-79
2021/10/21 05:49:22;;;;;;;;;0.50;0.00;;;;;11.07;65.26;99709.13;4994648;28;47055;-79
2021/10/21 05:51:48;;;;;;;;;5.00;1.00;;;;;11.03;65.38;99719.13;4994267;28;45197;-79
2021/10/21 05:54:14;;;;;;;;;3.00;1.00;;;;;11.04;65.22;99720.84;4995859;28;45254;-79
2021/10/21 05:56:39;;;;;;;;;1.75;1.00;;;;;10.94;65.56;99715.31;4995751;28;45416;-79
2021/10/21 05:59:04;;;;;;;;;2.75;1.00;;;;;10.99;65.58;99720.34;4999171;28;45192;-79
2021/10/21 06:01:30;;;;;;;;;2.00;1.00;;;;;10.97;65.90;99723.06;4998445;28;45235;-79
2021/10/21 06:03:56;;;;;;;;;3.25;1.25;;;;;10.96;65.96;99725.84;5015545;28;45365;-79
2021/10/21 06:06:21;;;;;;;;;4.50;2.00;;;;;10.93;66.03;99739.34;5018271;28;45360;-79
2021/10/21 06:08:47;;;;;;;;;4.75;0.25;;;;;10.92;66.62;99732.34;5018338;28;45282;-79
2021/10/21 06:11:13;;;;;;;;;4.00;1.00;;;;;10.94;66.67;99743.72;5018802;28;45219;-79
2021/10/21 06:13:39;;;;;;;;;2.25;1.25;;;;;10.95;66.87;99750.75;5017934;28;45336;-79
2021/10/21 06:16:05;;;;;;;;;2.00;1.00;;;;;10.94;67.39;99755.22;5018649;28;45170;-79
2021/10/21 06:18:31;;;;;;;;;2.50;1.50;;;;;10.94;67.24;99759.69;5018175;28;45352;-79
2021/10/21 06:20:57;;;;;;;;;1.50;1.00;;;;;10.93;67.49;99764.16;5018757;28;45400;-80
2021/10/21 06:23:24;;;;;;;;;4.25;1.00;;;;;10.94;67.45;99780.97;5017989;28;45263;-80
2021/10/21 06:25:50;;;;;;;;;3.00;0.50;;;;;10.92;67.51;99767.78;5018875;28;45192;-80
2021/10/21 06:28:15;;;;;;;;;3.50;1.00;;;;;10.88;67.87;99761.81;5018136;28;45258;-80
2021/10/21 06:30:41;;;;;;;;;1.25;0.00;;;;;10.91;67.90;99775.84;5017715;28;45181;-79
2021/10/21 06:33:08;;;;;;;;;4.00;1.00;;;;;10.89;68.11;99768.00;5018472;28;45365;-79
2021/10/21 06:35:34;;;;;;;;;2.75;1.00;;;;;10.86;67.69;99779.69;5018301;28;45371;-79
2021/10/21 06:38:00;;;;;;;;;3.75;0.00;;;;;10.84;67.75;99778.94;5016430;28;47388;-79
2021/10/21 06:40:26;;;;;;;;;3.50;2.00;;;;;10.83;68.09;99771.94;5018339;28;45609;-79
2021/10/21 06:42:51;;;;;;;;;3.75;2.00;;;;;10.87;68.29;99781.41;5017883;28;45279;-79
2021/10/21 06:45:17;;;;;;;;;2.50;0.50;;;;;10.90;68.32;99788.28;5017742;28;45290;-79
2021/10/21 06:47:43;;;;;;;;;2.50;1.00;;;;;10.87;68.45;99789.38;5017907;28;45212;-79
2021/10/21 06:50:10;;;;;;;;;2.00;1.00;;;;;10.87;68.52;99801.81;5017875;28;45250;-79
2021/10/21 06:52:37;;;;;;;;;4.50;1.00;;;;;10.81;68.13;99802.22;5017790;28;45373;-79
2021/10/21 06:55:02;;;;;;;;;3.00;0.75;;;;;10.87;68.34;99815.09;5018326;28;45291;-79
2021/10/21 06:57:28;;;;;;;;;5.75;1.50;;;;;10.86;68.68;99814.25;5017743;28;45351;-80
2021/10/21 06:59:53;;;;;;;;;1.50;0.75;;;;;10.88;68.14;99814.16;5016251;28;45220;-80
2021/10/21 07:02:18;;;;;;;;;1.50;1.00;;;;;10.92;68.00;99825.44;5017722;28;45377;-80
2021/10/21 07:04:44;;;;;;;;;3.50;1.75;;;;;10.92;68.40;99820.97;5017961;28;45227;-80
2021/10/21 07:07:09;;;;;;;;;2.75;1.00;;;;;10.97;68.05;99833.94;5017359;28;46054;-80
2021/10/21 07:09:34;;;;;;;;;4.00;1.00;;;;;11.04;67.87;99837.88;5017047;28;45187;-80
2021/10/21 07:12:00;;;;;;;;;2.25;1.00;;;;;11.07;68.16;99842.16;5017554;28;45293;-80
2021/10/21 07:14:25;;;;;;;;;5.75;1.75;;;;;11.09;67.84;99833.09;5016168;28;45234;-80
2021/10/21 07:16:50;;;;;;;;;2.50;2.00;;;;;11.19;67.85;99847.47;5017464;28;45178;-80
2021/10/21 07:19:16;;;;;;;;;2.00;0.33;;;;;11.27;67.49;99851.41;5018105;28;45129;-80
2021/10/21 07:21:42;;;;;;;;;1.00;1.00;;;;;11.30;67.61;99843.22;5017537;28;45199;-80
2021/10/21 07:24:07;;;;;;;;;4.25;0.00;;;;;11.44;67.69;99850.22;5017503;28;45205;-80
2021/10/21 07:26:33;;;;;;;;;5.25;2.00;;;;;11.52;67.10;99863.88;5017150;28;46504;-80
2021/10/21 07:28:58;;;;;;;;;3.25;1.00;;;;;11.62;67.20;99872.06;5017902;28;45307;-80
2021/10/21 07:31:25;;;;;;;;;4.00;1.00;;;;;11.72;66.38;99878.44;5017541;28;45189;-80
2021/10/21 07:33:51;;;;;;;;;3.25;1.00;;;;;11.79;66.41;99876.19;5016593;28;45185;-78
2021/10/21 07:36:17;;;;;;;;;2.75;1.50;;;;;11.84;66.12;99874.03;5017606;28;45184;-79
2021/10/21 07:38:42;;;;;;;;;1.75;1.00;;;;;11.91;66.02;99883.28;5016861;28;45640;-79
2021/10/21 07:41:08;;;;;;;;;2.50;1.00;;;;;11.96;65.99;99886.50;5017265;28;45249;-78
2021/10/21 07:43:35;;;;;;;;;5.50;2.00;;;;;11.98;65.78;99889.06;5016840;28;45193;-78
2021/10/21 07:46:00;;;;;;;;;3.00;1.00;;;;;12.10;65.50;99901.50;5017089;28;45166;-80
2021/10/21 07:48:26;;;;;;;;;5.75;2.00;;;;;12.15;65.70;99902.00;5016829;28;45315;-78
2021/10/21 07:50:51;;;;;;;;;3.50;2.00;;;;;12.29;65.24;99905.50;5017508;28;45200;-80
2021/10/21 07:53:16;;;;;;;;;7.75;2.00;;;;;12.35;64.99;99908.56;5017029;28;45281;-78
2021/10/21 07:55:42;;;;;;;;;6.00;2.00;;;;;12.40;64.97;99911.75;5016712;28;45327;-78
2021/10/21 07:58:07;;;;;;;;;3.25;2.00;;;;;12.49;64.33;99914.72;5015434;28;45347;-78
2021/10/21 08:00:33;;;;;;;;;7.00;2.00;;;;;12.58;64.57;99919.34;5017260;28;45085;-78
2021/10/21 08:02:59;;;;;;;;;6.00;1.00;;;;;12.66;64.74;99921.47;5016690;28;45462;-78
2021/10/21 08:05:26;;;;;;;;;3.75;1.00;;;;;12.75;63.82;99926.97;5016462;28;46151;-78
2021/10/21 08:07:52;;;;;;;;;2.00;1.00;;;;;12.74;63.69;99927.06;5016667;28;45688;-78
2021/10/21 08:10:18;;;;;;;;;7.25;2.00;;;;;12.68;63.88;99930.19;5016814;28;45201;-79
2021/10/21 08:12:45;;;;;;;;;4.00;1.00;;;;;12.75;63.85;99942.09;5016732;28;45209;-79
2021/10/21 08:15:11;;;;;;;;;2.75;1.75;;;;;12.76;63.89;99934.00;5016349;28;45217;-79
2021/10/21 08:17:39;;;;;;;;;1.50;1.50;;;;;12.84;63.58;99937.91;5015163;28;45193;-79
2021/10/21 08:20:05;;;;;;;;;3.25;0.50;;;;;12.83;63.10;99930.88;5016018;28;45212;-80
2021/10/21 08:22:32;;;;;;;;;4.75;2.00;;;;;12.84;63.41;99943.22;5016299;28;45400;-80
2021/10/21 08:24:58;;;;;;;;;3.25;2.00;;;;;12.85;63.62;99947.59;5016397;28;46289;-79
2021/10/21 08:27:23;;;;;;;;;5.00;1.00;;;;;12.88;63.10;99942.03;5016519;28;45322;-79
2021/10/21 08:29:49;;;;;;;;;4.00;2.00;;;;;12.91;63.11;99944.47;5016814;28;45140;-79
2021/10/21 08:32:14;;;;;;;;;4.50;1.00;;;;;12.90;62.40;99950.78;5016414;28;45208;-79
2021/10/21 08:34:40;;;;;;;;;5.00;1.75;;;;;12.88;62.94;99939.38;5015693;28;46533;-79
2021/10/21 08:37:06;;;;;;;;;5.00;2.25;;;;;12.88;63.03;99942.91;5016310;28;45398;-79
2021/10/21 08:39:34;;;;;;;;;5.75;1.50;;;;;12.88;62.56;99934.91;5016462;28;45125;-79
2021/10/21 08:42:00;;;;;;;;;1.00;1.00;;;;;12.89;62.84;99933.06;5016390;28;45239;-79
2021/10/21 08:44:25;;;;;;;;;3.00;1.50;;;;;12.82;62.52;99937.19;5016237;28;45212;-79
2021/10/21 08:46:53;;;;;;;;;3.75;0.00;;;;;12.83;63.11;99941.56;4998373;28;45936;-79
2021/10/21 08:49:19;;;;;;;;;2.00;1.00;;;;;12.86;62.96;99935.97;5016684;28;45188;-79
2021/10/21 08:51:46;;;;;;;;;4.25;1.25;;;;;12.88;62.87;99939.38;5016552;28;45296;-79
2021/10/21 08:54:12;;;;;;;;;2.50;1.75;;;;;12.88;62.45;99940.25;5016165;28;45906;-79
2021/10/21 08:56:37;;;;;;;;;1.75;1.00;;;;;12.87;63.09;99935.88;5016223;28;45196;-79
2021/10/21 08:59:03;;;;;;;;;1.50;1.00;;;;;12.93;63.29;99937.22;5016525;28;45215;-79
2021/10/21 09:01:42;;;;;;;;;4.25;1.00;;;;;13.00;63.37;99945.59;5016212;28;45279;-79
2021/10/21 09:09:27;;;;;;;;;3.75;2.00;;;;;13.14;62.56;99953.44;5016161;28;45268;-79
2021/10/21 09:12:08;;;;;;;;;3.75;2.00;;;;;13.13;61.59;99931.22;5016476;28;45212;-79
2021/10/21 09:14:50;;;;;;;;;3.00;0.00;;;;;13.19;61.95;99945.91;5015239;28;46766;-79
2021/10/21 09:17:19;;;;;;;;;3.00;0.00;;;;;13.20;62.03;99944.97;5015699;28;45153;-79
2021/10/21 09:19:46;;;;;;;;;8.50;0.00;;;;;13.22;62.22;99947.50;5015854;28;45278;-79
2021/10/21 09:22:27;;;;;;;;;0.25;0.00;;;;;13.28;62.02;99952.38;5015993;28;45365;-79
2021/10/21 09:24:55;;;;;;;;;1.25;1.25;;;;;13.36;61.75;99960.69;5015752;28;45408;-79
2021/10/21 09:27:29;;;;;;;;;4.50;1.00;;;;;13.44;60.82;99942.25;5015714;28;45315;-79
2021/10/21 09:29:56;;;;;;;;;1.75;1.75;;;;;13.48;61.40;99940.19;4997904;28;45169;-79
2021/10/21 09:32:23;;;;;;;;;6.25;2.00;;;;;13.51;60.08;99947.97;5016733;28;45248;-79
2021/10/21 09:34:58;;;;;;;;;1.75;1.00;;;;;13.56;60.09;99940.44;5018605;28;45246;-79
2021/10/21 09:37:31;;;;;;;;;1.00;1.00;;;;;13.63;60.57;99936.31;5000855;28;45475;-78
2021/10/21 09:40:19;;;;;;;;;0.00;0.00;;;;;13.75;61.02;99936.34;5019112;28;45206;-79
2021/10/21 09:42:54;;;;;;;;;3.00;1.00;;;;;13.95;60.15;99940.09;5018662;28;45148;-79
2021/10/21 09:45:22;;;;;;;;;1.25;1.00;;;;;14.15;59.80;99952.75;5019293;28;46117;-79
2021/10/21 09:47:50;;;;;;;;;1.50;0.75;;;;;14.31;59.67;99932.81;5019100;28;45469;-79
2021/10/21 09:50:42;;;;;;;;;6.75;1.00;;;;;14.59;59.28;99936.75;5018677;28;45264;-79
2021/10/21 09:53:14;;;;;;;;;0.25;0.00;;;;;14.85;59.17;99939.13;5018866;28;45331;-79
2021/10/21 09:55:41;;;;;;;;;1.00;0.25;;;;;15.15;58.38;99941.06;5018426;28;47012;-79
2021/10/21 09:58:09;;;;;;;;;0.00;0.00;;;;;15.47;58.73;99936.63;5019145;28;45141;-79
2021/10/21 10:00:37;;;;;;;;;0.75;0.50;;;;;15.84;57.38;99938.81;5019267;28;45196;-79
2021/10/21 10:03:13;;;;;;;;;1.75;0.75;;;;;16.02;56.90;99926.47;5018300;28;45176;-79
2021/10/21 10:05:43;;;;;;;;;1.25;0.50;;;;;16.25;55.56;99934.31;5018594;28;46602;-80
2021/10/21 10:08:10;;;;;;;;;2.00;0.00;;;;;16.29;55.66;99948.28;5018601;28;45537;-80
2021/10/21 10:10:39;;;;;;;;;2.75;0.75;;;;;16.18;54.90;99943.91;5018706;28;45247;-79
2021/10/21 10:13:07;;;;;;;;;3.00;0.75;;;;;16.07;55.76;99935.97;5016724;28;45344;-80
2021/10/21 10:15:34;;;;;;;;;3.50;0.50;;;;;16.08;56.11;99948.38;5017971;28;47346;-80
2021/10/21 10:18:00;;;;;;;;;0.25;0.25;;;;;16.05;55.63;99944.97;5018265;28;45428;-80
2021/10/21 10:20:27;;;;;;;;;2.50;1.00;;;;;16.12;56.05;99936.38;5018334;28;45299;-79
2021/10/21 10:22:53;;;;;;;;;0.00;0.00;;;;;16.19;54.81;99948.28;5018468;28;45304;-80
2021/10/21 10:25:20;;;;;;;;;1.75;0.00;;;;;16.20;54.99;99939.25;5018354;28;45549;-80
2021/10/21 10:28:00;;;;;;;;;3.00;1.00;;;;;16.00;55.27;99944.56;5000673;28;45440;-79
2021/10/21 10:30:50;;;;;;;;;2.50;0.50;;;;;15.76;55.13;99954.69;5018616;28;45274;-80
2021/10/21 10:33:42;;;;;;;;;0.00;0.00;;;;;15.47;56.54;99950.84;5018160;28;45366;-79
2021/10/21 10:36:30;;;;;;;;;0.75;0.75;;;;;15.37;58.74;99957.97;5014594;28;47492;-80
2021/10/21 10:38:57;;;;;;;;;0.00;0.00;;;;;15.13;59.37;99969.78;5018227;28;45179;-80
2021/10/21 10:41:44;;;;;;;;;3.25;0.75;;;;;14.88;60.78;99962.09;5018259;28;45250;-80
2021/10/21 10:44:55;;;;;;;;;2.25;1.00;;;;;14.65;61.78;99965.72;5017784;28;45331;-79
2021/10/21 10:47:39;;;;;;;;;2.50;1.00;;;;;14.49;63.01;99968.75;4956470;28;46901;-79
2021/10/21 10:50:07;;;;;;;;;0.50;0.00;;;;;14.37;63.81;99963.56;4956823;28;45246;-79
2021/10/21 10:52:47;;;;;;;;;6.00;1.00;;;;;14.30;63.76;99969.38;4957065;28;45097;-79
2021/10/21 10:55:24;;;;;;;;;0.00;0.00;;;;;14.29;64.00;99964.16;4956588;28;45355;-80
2021/10/21 10:57:56;;;;;;;;;3.75;0.00;;;;;14.29;64.46;99962.34;4956365;28;45520;-79
2021/10/21 11:00:39;;;;;;;;;1.25;0.00;;;;;14.23;64.97;99956.63;4956387;28;45210;-80
2021/10/21 11:03:06;;;;;;;;;1.25;0.75;;;;;14.22;65.10;99955.75;4956341;28;45289;-80
2021/10/21 11:05:47;;;;;;;;;2.25;1.50;;;;;14.15;66.70;99975.94;4956765;28;45574;-80
2021/10/21 11:08:15;;;;;;;;;1.00;1.00;;;;;14.01;67.59;99966.38;4956019;28;46372;-79
2021/10/21 11:10:45;;;;;;;;;2.00;1.00;;;;;13.77;68.01;99958.47;4956625;28;45238;-79
2021/10/21 11:13:41;;;;;;;;;3.25;0.75;;;;;13.60;68.34;99967.78;4956377;28;45270;-79
2021/10/21 11:16:38;;;;;;;;;3.25;1.00;;;;;13.43;69.51;99955.72;4944516;28;45140;-79
2021/10/21 11:19:04;;;;;;;;;2.50;2.50;;;;;13.30;70.06;99963.78;4955761;28;47739;-79
2021/10/21 11:21:52;;;;;;;;;2.00;1.00;;;;;13.19;71.02;99958.41;4956426;28;45170;-79
2021/10/21 11:24:53;;;;;;;;;8.00;1.75;;;;;13.06;71.28;99942.47;4990177;28;45253;-79
2021/10/21 11:27:20;;;;;;;;;0.75;0.75;;;;;13.05;71.08;99948.78;5014048;28;45170;-79
2021/10/21 11:29:51;;;;;;;;;1.00;1.00;;;;;13.02;72.16;99946.34;5017404;28;45447;-79
2021/10/21 11:32:17;;;;;;;;;3.50;0.00;;;;;12.86;72.21;99941.31;5017142;28;45038;-79
2021/10/21 11:34:52;;;;;;;;;3.75;1.75;;;;;12.75;72.70;99937.66;5016274;28;45236;-79
2021/10/21 11:37:39;;;;;;;;;1.75;1.00;;;;;12.66;73.55;99940.97;5017322;28;45316;-79
2021/10/21 11:40:07;;;;;;;;;3.00;0.50;;;;;12.56;73.80;99934.63;5017447;28;46454;-79
2021/10/21 11:42:33;;;;;;;;;2.50;2.00;;;;;12.48;74.12;99929.84;5017406;28;45248;-79